Cap Guillaume — SZXO — position and weather

sailwx.info

Track history (hours):
 
Tides and Currents Weather Stations Pressure Air Temp Water Temp Dewpoint Dewpoint Depression Visibility Wind Speed Wind Dir Waves Ship Positions

Cap Guillaume

Last reported at 2018-Apr-11 17:11 UTC. Time now 2018-Jun-19 17:46 UTC.
Position N 01°17' E 103°21'.
Warning: this ship's position is months out of date.

Length 274 m; draft 7.6 m.

Type: Tanker. MMSI: 240556000.

Date/timePositionNaut miles runAvg speedWind from/ knotsBaromVisibWave heightAir tempDewpointWater temp
2018-Apr-11 17:11N 01°17' E 103°21'2 8.6
2018-Apr-11 16:56N 01°16' E 103°23'5 8.2
2018-Apr-11 16:17N 01°14' E 103°28'3 8.9
2018-Apr-11 15:57N 01°13' E 103°31'4 9.2
2018-Apr-11 15:30N 01°12' E 103°35'4 8.4
2018-Apr-11 15:00N 01°12' E 103°39'2 3.3
2018-Apr-11 14:30N 01°13' E 103°39'0 0.3
2018-Apr-11 13:59N 01°13' E 103°39'0 0.1
2018-Apr-11 13:29N 01°13' E 103°39'0 0.2
2018-Apr-11 12:59N 01°13' E 103°39'0 0.0
2018-Apr-11 12:29N 01°13' E 103°39'0 0.0
2018-Apr-11 11:56N 01°13' E 103°39'0 0.1
2018-Apr-11 11:29N 01°13' E 103°39'0 0.0
2018-Apr-11 10:59N 01°13' E 103°39'0 0.1
2018-Apr-11 10:29N 01°13' E 103°39'0 0.0
2018-Apr-11 09:59N 01°13' E 103°39'0 0.0
2018-Apr-11 09:29N 01°13' E 103°39'0 0.0
2018-Apr-11 08:59N 01°13' E 103°39'0 0.0
2018-Apr-11 08:29N 01°13' E 103°39'0 0.0
2018-Apr-11 07:59N 01°13' E 103°39'0 0.1
2018-Apr-11 07:29N 01°13' E 103°39'0 0.0
2018-Apr-11 06:59N 01°13' E 103°39'0 0.0
2018-Apr-11 06:29N 01°13' E 103°39'0 0.0
2018-Apr-11 05:59N 01°13' E 103°39'0 0.0
2018-Apr-11 05:20N 01°13' E 103°39'0 0.1
2018-Apr-11 04:59N 01°13' E 103°39'0 0.0
2018-Apr-11 04:29N 01°13' E 103°39'0 0.0
2018-Apr-11 03:59N 01°13' E 103°39'0 0.0
2018-Apr-11 03:26N 01°13' E 103°39'0 0.0
2018-Apr-11 02:59N 01°13' E 103°39'0 0.1
2018-Apr-11 02:26N 01°13' E 103°39'0 0.1
2018-Apr-11 01:59N 01°13' E 103°39'0 0.0
2018-Apr-11 01:29N 01°13' E 103°39'0 0.0
2018-Apr-11 00:56N 01°13' E 103°39'0 0.0
2018-Apr-11 00:26N 01°13' E 103°39'0 0.0
2018-Apr-10 23:59N 01°13' E 103°39'0 0.0
2018-Apr-10 23:29N 01°13' E 103°39'0 0.0
2018-Apr-10 22:59N 01°13' E 103°39'0 0.0
2018-Apr-10 22:23N 01°13' E 103°39'0 0.0
2018-Apr-10 21:59N 01°13' E 103°39'0 0.0
2018-Apr-10 21:29N 01°13' E 103°39'0 0.0
2018-Apr-10 20:59N 01°13' E 103°39'0 0.1
2018-Apr-10 20:26N 01°13' E 103°39'0 0.1
2018-Apr-10 19:59N 01°13' E 103°39'0 0.0
2018-Apr-10 19:23N 01°13' E 103°39'0 0.0
2018-Apr-10 18:59N 01°13' E 103°39'0 0.3
2018-Apr-10 18:26N 01°13' E 103°39'0 0.6
2018-Apr-10 18:00N 01°13' E 103°40'2 3.7
2018-Apr-10 17:30N 01°14' E 103°41'0 0.2
2018-Apr-10 16:58N 01°14' E 103°41'0 0.0
2018-Apr-10 16:28N 01°14' E 103°41'0 0.0
2018-Apr-10 15:58N 01°14' E 103°41'0 0.0
2018-Apr-10 15:28N 01°14' E 103°41'0 0.0
2018-Apr-10 14:58N 01°14' E 103°41'0 0.0
2018-Apr-10 14:22N 01°14' E 103°41'0 0.0
2018-Apr-10 13:55N 01°14' E 103°41'0 0.0
2018-Apr-10 13:28N 01°14' E 103°41'0 0.0
2018-Apr-10 12:58N 01°14' E 103°41'0 0.0
2018-Apr-10 12:19N 01°14' E 103°41'0 0.0
2018-Apr-10 11:58N 01°14' E 103°41'0 0.0
2018-Apr-10 11:22N 01°14' E 103°41'0 0.0
2018-Apr-10 10:55N 01°14' E 103°41'0 0.0
2018-Apr-10 10:28N 01°14' E 103°41'0 0.0
2018-Apr-10 09:58N 01°14' E 103°41'0 0.0
2018-Apr-10 09:22N 01°14' E 103°41'0 0.0
2018-Apr-10 08:55N 01°14' E 103°41'0 0.0
2018-Apr-10 08:28N 01°14' E 103°41'0 0.0
2018-Apr-10 07:58N 01°14' E 103°41'0 0.0
2018-Apr-10 07:19N 01°14' E 103°41'0 0.0
2018-Apr-10 06:40N 01°14' E 103°41'0 0.0
2018-Apr-10 06:25N 01°14' E 103°41'0 0.0
2018-Apr-10 05:58N 01°14' E 103°41'0 0.0
2018-Apr-10 05:28N 01°14' E 103°41'0 0.0
2018-Apr-10 04:52N 01°14' E 103°41'0 0.0
2018-Apr-10 04:28N 01°14' E 103°41'0 0.0
2018-Apr-10 03:49N 01°14' E 103°41'0 0.0
2018-Apr-10 03:28N 01°14' E 103°41'0 0.0
2018-Apr-10 02:58N 01°14' E 103°41'0 0.0
2018-Apr-10 02:25N 01°14' E 103°41'0 0.0
2018-Apr-10 01:52N 01°14' E 103°41'0 0.0
2018-Apr-10 01:25N 01°14' E 103°41'0 0.0
2018-Apr-10 00:25N 01°14' E 103°41'0 0.0
2018-Apr-09 23:52N 01°14' E 103°41'0 0.0
2018-Apr-09 23:22N 01°14' E 103°41'0 0.0
2018-Apr-09 22:58N 01°14' E 103°41'0 0.0
2018-Apr-09 22:19N 01°14' E 103°41'0 0.0
2018-Apr-09 21:55N 01°14' E 103°41'0 0.0
2018-Apr-09 21:25N 01°14' E 103°41'0 0.0
2018-Apr-09 20:58N 01°14' E 103°41'0 0.0
2018-Apr-09 20:28N 01°14' E 103°41'0 0.0
2018-Apr-09 19:55N 01°14' E 103°41'0 0.0
2018-Apr-09 19:28N 01°14' E 103°41'0 0.0
2018-Apr-09 18:55N 01°14' E 103°41'0 0.0
2018-Apr-09 18:25N 01°14' E 103°41'0 0.0
2018-Apr-09 17:58N 01°14' E 103°41'0 0.0
2018-Apr-09 17:28N 01°14' E 103°41'0 0.0
2018-Apr-09 16:55N 01°14' E 103°41'0 0.0
2018-Apr-09 16:16N 01°14' E 103°41'0 0.0
2018-Apr-09 15:58N 01°14' E 103°41'0 0.0
2018-Apr-09 15:04N 01°14' E 103°41'0 0.0
2018-Apr-09 14:55N 01°14' E 103°41'0 0.0
2018-Apr-09 14:16N 01°14' E 103°41'0 0.0
2018-Apr-09 13:55N 01°14' E 103°41'0 0.0
2018-Apr-09 13:19N 01°14' E 103°41'0 0.0
2018-Apr-09 12:37N 01°14' E 103°41'0 0.0
2018-Apr-09 12:28N 01°14' E 103°41'0 0.0
2018-Apr-09 11:55N 01°14' E 103°41'0 0.0
2018-Apr-09 11:28N 01°14' E 103°41'0 0.0
2018-Apr-09 10:52N 01°14' E 103°41'0 0.0
2018-Apr-09 10:22N 01°14' E 103°41'0 0.0
2018-Apr-09 09:55N 01°14' E 103°41'0 0.0
2018-Apr-09 09:25N 01°14' E 103°41'0 0.0
2018-Apr-09 08:49N 01°14' E 103°41'0 0.0
2018-Apr-09 07:52N 01°14' E 103°41'0 0.0
2018-Apr-09 07:01N 01°14' E 103°41'0 0.0
2018-Apr-09 06:55N 01°14' E 103°41'0 0.0
2018-Apr-09 06:28N 01°14' E 103°41'0 0.0
2018-Apr-09 05:52N 01°14' E 103°41'0 0.0
2018-Apr-09 05:23N 01°14' E 103°41'0 0.2
2018-Apr-09 04:58N 01°14' E 103°41'1 1.4
2018-Apr-09 04:30N 01°14' E 103°42'3 5.6
2018-Apr-09 04:00N 01°16' E 103°44'3 5.5
2018-Apr-09 03:30N 01°14' E 103°47'3 6.6
2018-Apr-09 03:01N 01°12' E 103°49'4 8.5
2018-Apr-09 02:30N 01°13' E 103°54'3 5.8
2018-Apr-09 01:56N 01°15' E 103°56'0 0.7
2018-Apr-09 01:28N 01°15' E 103°56'0 0.0
2018-Apr-09 00:36N 01°15' E 103°56'0 0.0
2018-Apr-09 00:30N 01°15' E 103°56'0 0.1
2018-Apr-08 23:36N 01°15' E 103°56'0 0.0
2018-Apr-08 05:03N 01°15' E 103°56'0 0.1
2018-Apr-08 05:00N 01°15' E 103°56'0 0.1
2018-Apr-08 04:27N 01°15' E 103°56'0 0.1
2018-Apr-08 03:54N 01°15' E 103°56'0 0.1
2018-Apr-08 03:27N 01°15' E 103°56'0 0.1
2018-Apr-08 02:45N 01°15' E 103°56'0 0.0
2018-Apr-08 02:18N 01°15' E 103°56'0 0.0
2018-Apr-08 01:30N 01°15' E 103°56'0 0.0
2018-Apr-08 00:57N 01°15' E 103°56'0 0.0
2018-Apr-08 00:21N 01°15' E 103°56'0 0.0
2018-Apr-07 23:57N 01°15' E 103°56'0 0.1
2018-Apr-07 23:24N 01°15' E 103°56'0 0.1
2018-Apr-07 22:36N 01°15' E 103°56'0 0.1
2018-Apr-07 22:27N 01°15' E 103°56'0 0.0
2018-Apr-07 07:45N 01°15' E 103°56'0 0.1
2018-Apr-07 04:27N 01°15' E 103°56'0 0.1
2018-Apr-07 03:09N 01°15' E 103°56'0 0.0
2018-Apr-07 02:33N 01°15' E 103°56'0 0.0
2018-Apr-07 02:27N 01°15' E 103°56'0 0.0
2018-Apr-07 02:00N 01°15' E 103°56'0 0.0
2018-Apr-07 01:24N 01°15' E 103°56'0 0.0
2018-Apr-07 00:57N 01°15' E 103°56'0 0.0
2018-Apr-07 00:21N 01°15' E 103°56'0 0.0
2018-Apr-07 00:00N 01°15' E 103°56'0 0.0
2018-Apr-06 23:15N 01°15' E 103°56'0 0.0
2018-Apr-06 22:51N 01°15' E 103°56'0 0.0
2018-Apr-06 22:15N 01°15' E 103°56'0 0.0
2018-Apr-06 21:45N 01°15' E 103°56'0 0.1
2018-Apr-06 21:15N 01°15' E 103°56'0 0.2
2018-Apr-06 20:57N 01°15' E 103°56'0 0.2
2018-Apr-06 20:30N 01°15' E 103°56'0 0.0
2018-Apr-06 15:43N 01°15' E 103°56'0 0.4
2018-Apr-06 15:30N 01°15' E 103°56'1 1.1
2018-Apr-06 15:01N 01°15' E 103°56'2 3.5
2018-Apr-06 14:30N 01°14' E 103°58'1 2.3
2018-Apr-06 14:00N 01°14' E 103°57'4 6.4
2018-Apr-06 13:24N 01°12' E 103°53'3 8.8
2018-Apr-06 13:00N 01°11' E 103°50'4 8.7
2018-Apr-06 12:30N 01°09' E 103°46'5 9.1
2018-Apr-06 12:00N 01°05' E 103°43'5 9.2
2018-Apr-06 11:30N 01°03' E 103°39'4 8.2
2018-Apr-06 11:00N 01°04' E 103°36'5 9.9
2018-Apr-06 10:31N 01°07' E 103°32'610.0
2018-Apr-06 09:58N 01°11' E 103°27'510.3
2018-Apr-06 09:30N 01°13' E 103°23'610.6
2018-Apr-06 08:56N 01°17' E 103°18'  
2018-Apr-03 05:45N 01°16' E 103°23'611.2
2018-Apr-03 05:15N 01°14' E 103°28'311.7
2018-Apr-03 04:58N 01°13' E 103°31'611.8
2018-Apr-03 04:30N 01°11' E 103°36'611.7
2018-Apr-03 04:00N 01°10' E 103°42'5 9.3
2018-Apr-03 03:30N 01°10' E 103°47'712.5
2018-Apr-03 02:57N 01°13' E 103°53'510.8
2018-Apr-03 02:30N 01°15' E 103°57'2 0.9
2018-Apr-03 00:34N 01°17' E 103°58'0 0.2
2018-Apr-03 00:28N 01°17' E 103°58'0 0.0
2018-Apr-02 19:13N 01°17' E 103°58'0 0.1
2018-Apr-02 18:52N 01°17' E 103°58'0 0.0
2018-Apr-02 10:31N 01°17' E 103°58'0 0.1
2018-Apr-02 10:22N 01°17' E 103°58'0 0.1
2018-Apr-02 09:37N 01°17' E 103°58'0 0.0
2018-Apr-02 09:28N 01°17' E 103°58'0 0.1
2018-Apr-02 08:55N 01°17' E 103°58'0 0.0
2018-Apr-02 08:25N 01°17' E 103°58'0 0.0
2018-Apr-02 07:58N 01°17' E 103°58'0 0.1
2018-Apr-02 07:28N 01°17' E 103°58'0 0.0
2018-Apr-01 23:28N 01°17' E 103°58'0 0.1
2018-Apr-01 22:58N 01°17' E 103°58'0 0.1
2018-Apr-01 22:25N 01°17' E 103°58'0 0.0
2018-Apr-01 21:55N 01°17' E 103°58'0 0.0
2018-Apr-01 21:19N 01°17' E 103°58'0 0.0
2018-Apr-01 20:49N 01°17' E 103°58'0 0.0
2018-Apr-01 20:25N 01°17' E 103°58'0 0.0
2018-Apr-01 19:55N 01°17' E 103°58'0 0.0
2018-Apr-01 19:25N 01°17' E 103°58'0 0.0
2018-Apr-01 18:49N 01°17' E 103°58'0 0.1
2018-Apr-01 18:25N 01°17' E 103°58'  
Track history (hours):
 
Tides and Currents Weather Stations Pressure Air Temp Water Temp Dewpoint Dewpoint Depression Visibility Wind Speed Wind Dir Waves Ship Positions

Cap Guillaume

Last reported at 2018-Apr-11 17:11 UTC. Time now 2018-Jun-19 17:46 UTC.
Position N 01°17' E 103°21'.
Warning: this ship's position is months out of date.

Length 274 m; draft 7.6 m.

Type: Tanker. MMSI: 240556000.

Date/timePositionNaut miles runAvg speedWind from/ knotsBaromVisibWave heightAir tempDewpointWater temp
2018-Apr-11 17:11N 01°17' E 103°21'2 8.6
2018-Apr-11 16:56N 01°16' E 103°23'5 8.2
2018-Apr-11 16:17N 01°14' E 103°28'3 8.9
2018-Apr-11 15:57N 01°13' E 103°31'4 9.2
2018-Apr-11 15:30N 01°12' E 103°35'4 8.4
2018-Apr-11 15:00N 01°12' E 103°39'2 3.3
2018-Apr-11 14:30N 01°13' E 103°39'0 0.3
2018-Apr-11 13:59N 01°13' E 103°39'0 0.1
2018-Apr-11 13:29N 01°13' E 103°39'0 0.2
2018-Apr-11 12:59N 01°13' E 103°39'0 0.0
2018-Apr-11 12:29N 01°13' E 103°39'0 0.0
2018-Apr-11 11:56N 01°13' E 103°39'0 0.1
2018-Apr-11 11:29N 01°13' E 103°39'0 0.0
2018-Apr-11 10:59N 01°13' E 103°39'0 0.1
2018-Apr-11 10:29N 01°13' E 103°39'0 0.0
2018-Apr-11 09:59N 01°13' E 103°39'0 0.0
2018-Apr-11 09:29N 01°13' E 103°39'0 0.0
2018-Apr-11 08:59N 01°13' E 103°39'0 0.0
2018-Apr-11 08:29N 01°13' E 103°39'0 0.0
2018-Apr-11 07:59N 01°13' E 103°39'0 0.1
2018-Apr-11 07:29N 01°13' E 103°39'0 0.0
2018-Apr-11 06:59N 01°13' E 103°39'0 0.0
2018-Apr-11 06:29N 01°13' E 103°39'0 0.0
2018-Apr-11 05:59N 01°13' E 103°39'0 0.0
2018-Apr-11 05:20N 01°13' E 103°39'0 0.1
2018-Apr-11 04:59N 01°13' E 103°39'0 0.0
2018-Apr-11 04:29N 01°13' E 103°39'0 0.0
2018-Apr-11 03:59N 01°13' E 103°39'0 0.0
2018-Apr-11 03:26N 01°13' E 103°39'0 0.0
2018-Apr-11 02:59N 01°13' E 103°39'0 0.1
2018-Apr-11 02:26N 01°13' E 103°39'0 0.1
2018-Apr-11 01:59N 01°13' E 103°39'0 0.0
2018-Apr-11 01:29N 01°13' E 103°39'0 0.0
2018-Apr-11 00:56N 01°13' E 103°39'0 0.0
2018-Apr-11 00:26N 01°13' E 103°39'0 0.0
2018-Apr-10 23:59N 01°13' E 103°39'0 0.0
2018-Apr-10 23:29N 01°13' E 103°39'0 0.0
2018-Apr-10 22:59N 01°13' E 103°39'0 0.0
2018-Apr-10 22:23N 01°13' E 103°39'0 0.0
2018-Apr-10 21:59N 01°13' E 103°39'0 0.0
2018-Apr-10 21:29N 01°13' E 103°39'0 0.0
2018-Apr-10 20:59N 01°13' E 103°39'0 0.1
2018-Apr-10 20:26N 01°13' E 103°39'0 0.1
2018-Apr-10 19:59N 01°13' E 103°39'0 0.0
2018-Apr-10 19:23N 01°13' E 103°39'0 0.0
2018-Apr-10 18:59N 01°13' E 103°39'0 0.3
2018-Apr-10 18:26N 01°13' E 103°39'0 0.6
2018-Apr-10 18:00N 01°13' E 103°40'2 3.7
2018-Apr-10 17:30N 01°14' E 103°41'0 0.2
2018-Apr-10 16:58N 01°14' E 103°41'0 0.0
2018-Apr-10 16:28N 01°14' E 103°41'0 0.0
2018-Apr-10 15:58N 01°14' E 103°41'0 0.0
2018-Apr-10 15:28N 01°14' E 103°41'0 0.0
2018-Apr-10 14:58N 01°14' E 103°41'0 0.0
2018-Apr-10 14:22N 01°14' E 103°41'0 0.0
2018-Apr-10 13:55N 01°14' E 103°41'0 0.0
2018-Apr-10 13:28N 01°14' E 103°41'0 0.0
2018-Apr-10 12:58N 01°14' E 103°41'0 0.0
2018-Apr-10 12:19N 01°14' E 103°41'0 0.0
2018-Apr-10 11:58N 01°14' E 103°41'0 0.0
2018-Apr-10 11:22N 01°14' E 103°41'0 0.0
2018-Apr-10 10:55N 01°14' E 103°41'0 0.0
2018-Apr-10 10:28N 01°14' E 103°41'0 0.0
2018-Apr-10 09:58N 01°14' E 103°41'0 0.0
2018-Apr-10 09:22N 01°14' E 103°41'0 0.0
2018-Apr-10 08:55N 01°14' E 103°41'0 0.0
2018-Apr-10 08:28N 01°14' E 103°41'0 0.0
2018-Apr-10 07:58N 01°14' E 103°41'0 0.0
2018-Apr-10 07:19N 01°14' E 103°41'0 0.0
2018-Apr-10 06:40N 01°14' E 103°41'0 0.0
2018-Apr-10 06:25N 01°14' E 103°41'0 0.0
2018-Apr-10 05:58N 01°14' E 103°41'0 0.0
2018-Apr-10 05:28N 01°14' E 103°41'0 0.0
2018-Apr-10 04:52N 01°14' E 103°41'0 0.0
2018-Apr-10 04:28N 01°14' E 103°41'0 0.0
2018-Apr-10 03:49N 01°14' E 103°41'0 0.0
2018-Apr-10 03:28N 01°14' E 103°41'0 0.0
2018-Apr-10 02:58N 01°14' E 103°41'0 0.0
2018-Apr-10 02:25N 01°14' E 103°41'0 0.0
2018-Apr-10 01:52N 01°14' E 103°41'0 0.0
2018-Apr-10 01:25N 01°14' E 103°41'0 0.0
2018-Apr-10 00:25N 01°14' E 103°41'0 0.0
2018-Apr-09 23:52N 01°14' E 103°41'0 0.0
2018-Apr-09 23:22N 01°14' E 103°41'0 0.0
2018-Apr-09 22:58N 01°14' E 103°41'0 0.0
2018-Apr-09 22:19N 01°14' E 103°41'0 0.0
2018-Apr-09 21:55N 01°14' E 103°41'0 0.0
2018-Apr-09 21:25N 01°14' E 103°41'0 0.0
2018-Apr-09 20:58N 01°14' E 103°41'0 0.0
2018-Apr-09 20:28N 01°14' E 103°41'0 0.0
2018-Apr-09 19:55N 01°14' E 103°41'0 0.0
2018-Apr-09 19:28N 01°14' E 103°41'0 0.0
2018-Apr-09 18:55N 01°14' E 103°41'0 0.0
2018-Apr-09 18:25N 01°14' E 103°41'0 0.0
2018-Apr-09 17:58N 01°14' E 103°41'0 0.0
2018-Apr-09 17:28N 01°14' E 103°41'0 0.0
2018-Apr-09 16:55N 01°14' E 103°41'0 0.0
2018-Apr-09 16:16N 01°14' E 103°41'0 0.0
2018-Apr-09 15:58N 01°14' E 103°41'0 0.0
2018-Apr-09 15:04N 01°14' E 103°41'0 0.0
2018-Apr-09 14:55N 01°14' E 103°41'0 0.0
2018-Apr-09 14:16N 01°14' E 103°41'0 0.0
2018-Apr-09 13:55N 01°14' E 103°41'0 0.0
2018-Apr-09 13:19N 01°14' E 103°41'0 0.0
2018-Apr-09 12:37N 01°14' E 103°41'0 0.0
2018-Apr-09 12:28N 01°14' E 103°41'0 0.0
2018-Apr-09 11:55N 01°14' E 103°41'0 0.0
2018-Apr-09 11:28N 01°14' E 103°41'0 0.0
2018-Apr-09 10:52N 01°14' E 103°41'0 0.0
2018-Apr-09 10:22N 01°14' E 103°41'0 0.0
2018-Apr-09 09:55N 01°14' E 103°41'0 0.0
2018-Apr-09 09:25N 01°14' E 103°41'0 0.0
2018-Apr-09 08:49N 01°14' E 103°41'0 0.0
2018-Apr-09 07:52N 01°14' E 103°41'0 0.0
2018-Apr-09 07:01N 01°14' E 103°41'0 0.0
2018-Apr-09 06:55N 01°14' E 103°41'0 0.0
2018-Apr-09 06:28N 01°14' E 103°41'0 0.0
2018-Apr-09 05:52N 01°14' E 103°41'0 0.0
2018-Apr-09 05:23N 01°14' E 103°41'0 0.2
2018-Apr-09 04:58N 01°14' E 103°41'1 1.4
2018-Apr-09 04:30N 01°14' E 103°42'3 5.6
2018-Apr-09 04:00N 01°16' E 103°44'3 5.5
2018-Apr-09 03:30N 01°14' E 103°47'3 6.6
2018-Apr-09 03:01N 01°12' E 103°49'4 8.5
2018-Apr-09 02:30N 01°13' E 103°54'3 5.8
2018-Apr-09 01:56N 01°15' E 103°56'0 0.7
2018-Apr-09 01:28N 01°15' E 103°56'0 0.0
2018-Apr-09 00:36N 01°15' E 103°56'0 0.0
2018-Apr-09 00:30N 01°15' E 103°56'0 0.1
2018-Apr-08 23:36N 01°15' E 103°56'0 0.0
2018-Apr-08 05:03N 01°15' E 103°56'0 0.1
2018-Apr-08 05:00N 01°15' E 103°56'0 0.1
2018-Apr-08 04:27N 01°15' E 103°56'0 0.1
2018-Apr-08 03:54N 01°15' E 103°56'0 0.1
2018-Apr-08 03:27N 01°15' E 103°56'0 0.1
2018-Apr-08 02:45N 01°15' E 103°56'0 0.0
2018-Apr-08 02:18N 01°15' E 103°56'0 0.0
2018-Apr-08 01:30N 01°15' E 103°56'0 0.0
2018-Apr-08 00:57N 01°15' E 103°56'0 0.0
2018-Apr-08 00:21N 01°15' E 103°56'0 0.0
2018-Apr-07 23:57N 01°15' E 103°56'0 0.1
2018-Apr-07 23:24N 01°15' E 103°56'0 0.1
2018-Apr-07 22:36N 01°15' E 103°56'0 0.1
2018-Apr-07 22:27N 01°15' E 103°56'0 0.0
2018-Apr-07 07:45N 01°15' E 103°56'0 0.1
2018-Apr-07 04:27N 01°15' E 103°56'0 0.1
2018-Apr-07 03:09N 01°15' E 103°56'0 0.0
2018-Apr-07 02:33N 01°15' E 103°56'0 0.0
2018-Apr-07 02:27N 01°15' E 103°56'0 0.0
2018-Apr-07 02:00N 01°15' E 103°56'0 0.0
2018-Apr-07 01:24N 01°15' E 103°56'0 0.0
2018-Apr-07 00:57N 01°15' E 103°56'0 0.0
2018-Apr-07 00:21N 01°15' E 103°56'0 0.0
2018-Apr-07 00:00N 01°15' E 103°56'0 0.0
2018-Apr-06 23:15N 01°15' E 103°56'0 0.0
2018-Apr-06 22:51N 01°15' E 103°56'0 0.0
2018-Apr-06 22:15N 01°15' E 103°56'0 0.0
2018-Apr-06 21:45N 01°15' E 103°56'0 0.1
2018-Apr-06 21:15N 01°15' E 103°56'0 0.2
2018-Apr-06 20:57N 01°15' E 103°56'0 0.2
2018-Apr-06 20:30N 01°15' E 103°56'0 0.0
2018-Apr-06 15:43N 01°15' E 103°56'0 0.4
2018-Apr-06 15:30N 01°15' E 103°56'1 1.1
2018-Apr-06 15:01N 01°15' E 103°56'2 3.5
2018-Apr-06 14:30N 01°14' E 103°58'1 2.3
2018-Apr-06 14:00N 01°14' E 103°57'4 6.4
2018-Apr-06 13:24N 01°12' E 103°53'3 8.8
2018-Apr-06 13:00N 01°11' E 103°50'4 8.7
2018-Apr-06 12:30N 01°09' E 103°46'5 9.1
2018-Apr-06 12:00N 01°05' E 103°43'5 9.2
2018-Apr-06 11:30N 01°03' E 103°39'4 8.2
2018-Apr-06 11:00N 01°04' E 103°36'5 9.9
2018-Apr-06 10:31N 01°07' E 103°32'610.0
2018-Apr-06 09:58N 01°11' E 103°27'510.3
2018-Apr-06 09:30N 01°13' E 103°23'610.6
2018-Apr-06 08:56N 01°17' E 103°18'  
2018-Apr-03 05:45N 01°16' E 103°23'611.2
2018-Apr-03 05:15N 01°14' E 103°28'311.7
2018-Apr-03 04:58N 01°13' E 103°31'611.8
2018-Apr-03 04:30N 01°11' E 103°36'611.7
2018-Apr-03 04:00N 01°10' E 103°42'5 9.3
2018-Apr-03 03:30N 01°10' E 103°47'712.5
2018-Apr-03 02:57N 01°13' E 103°53'510.8
2018-Apr-03 02:30N 01°15' E 103°57'2 0.9
2018-Apr-03 00:34N 01°17' E 103°58'0 0.2
2018-Apr-03 00:28N 01°17' E 103°58'0 0.0
2018-Apr-02 19:13N 01°17' E 103°58'0 0.1
2018-Apr-02 18:52N 01°17' E 103°58'0 0.0
2018-Apr-02 10:31N 01°17' E 103°58'0 0.1
2018-Apr-02 10:22N 01°17' E 103°58'0 0.1
2018-Apr-02 09:37N 01°17' E 103°58'0 0.0
2018-Apr-02 09:28N 01°17' E 103°58'0 0.1
2018-Apr-02 08:55N 01°17' E 103°58'0 0.0
2018-Apr-02 08:25N 01°17' E 103°58'0 0.0
2018-Apr-02 07:58N 01°17' E 103°58'0 0.1
2018-Apr-02 07:28N 01°17' E 103°58'0 0.0
2018-Apr-01 23:28N 01°17' E 103°58'0 0.1
2018-Apr-01 22:58N 01°17' E 103°58'0 0.1
2018-Apr-01 22:25N 01°17' E 103°58'0 0.0
2018-Apr-01 21:55N 01°17' E 103°58'0 0.0
2018-Apr-01 21:19N 01°17' E 103°58'0 0.0
2018-Apr-01 20:49N 01°17' E 103°58'0 0.0
2018-Apr-01 20:25N 01°17' E 103°58'0 0.0
2018-Apr-01 19:55N 01°17' E 103°58'0 0.0
2018-Apr-01 19:25N 01°17' E 103°58'0 0.0
2018-Apr-01 18:49N 01°17' E 103°58'0 0.1
2018-Apr-01 18:25N 01°17' E 103°58'  

Dump ship's entire track history